sensor_id;sensor_type;location;lat;lon;timestamp;pressure;altitude;pressure_sealevel;temperature;humidity
62055;BME280;48653;51.742;-1.256;2024-03-25T00:03:45;100058.55;;;7.51;43.93
62055;BME280;48653;51.742;-1.256;2024-03-25T00:06:09;100058.11;;;9.67;43.13
62055;BME280;48653;51.742;-1.256;2024-03-25T00:08:35;100054.36;;;9.38;43.85
62055;BME280;48653;51.742;-1.256;2024-03-25T00:11:00;100050.74;;;9.23;43.58
62055;BME280;48653;51.742;-1.256;2024-03-25T00:13:25;100043.30;;;9.09;43.73
62055;BME280;48653;51.742;-1.256;2024-03-25T00:15:51;100042.58;;;8.99;44.18
62055;BME280;48653;51.742;-1.256;2024-03-25T00:18:17;100036.95;;;9.11;43.19
62055;BME280;48653;51.742;-1.256;2024-03-25T00:20:43;100028.42;;;8.69;44.59
62055;BME280;48653;51.742;-1.256;2024-03-25T00:23:08;100025.27;;;9.22;43.62
62055;BME280;48653;51.742;-1.256;2024-03-25T00:25:33;100020.77;;;9.32;43.38
62055;BME280;48653;51.742;-1.256;2024-03-25T00:27:58;100013.22;;;9.11;44.55
62055;BME280;48653;51.742;-1.256;2024-03-25T00:30:24;100009.71;;;9.08;43.91
62055;BME280;48653;51.742;-1.256;2024-03-25T00:32:50;100009.99;;;8.51;45.47
62055;BME280;48653;51.742;-1.256;2024-03-25T00:35:15;100004.33;;;8.15;45.40
62055;BME280;48653;51.742;-1.256;2024-03-25T00:37:41;100008.24;;;8.13;45.98
62055;BME280;48653;51.742;-1.256;2024-03-25T00:40:07;100005.72;;;8.63;45.54
62055;BME280;48653;51.742;-1.256;2024-03-25T00:42:32;100006.52;;;8.44;45.55
62055;BME280;48653;51.742;-1.256;2024-03-25T00:44:57;100001.83;;;8.42;45.59
62055;BME280;48653;51.742;-1.256;2024-03-25T00:47:23;99998.79;;;8.18;46.78
62055;BME280;48653;51.742;-1.256;2024-03-25T00:49:48;99995.54;;;7.90;47.68
62055;BME280;48653;51.742;-1.256;2024-03-25T00:52:14;99994.36;;;8.27;46.14
62055;BME280;48653;51.742;-1.256;2024-03-25T00:54:39;99989.64;;;8.39;45.92
62055;BME280;48653;51.742;-1.256;2024-03-25T00:57:04;99990.04;;;8.75;45.63
62055;BME280;48653;51.742;-1.256;2024-03-25T00:59:29;99988.11;;;8.04;46.47
62055;BME280;48653;51.742;-1.256;2024-03-25T01:01:54;99980.07;;;7.76;47.67
62055;BME280;48653;51.742;-1.256;2024-03-25T01:04:20;99981.67;;;7.69;47.90
62055;BME280;48653;51.742;-1.256;2024-03-25T01:06:46;99979.52;;;7.78;47.27
62055;BME280;48653;51.742;-1.256;2024-03-25T01:09:10;99975.01;;;8.12;46.99
62055;BME280;48653;51.742;-1.256;2024-03-25T01:11:36;99968.45;;;7.71;47.24
62055;BME280;48653;51.742;-1.256;2024-03-25T01:14:02;99961.03;;;7.86;46.61
62055;BME280;48653;51.742;-1.256;2024-03-25T01:16:27;99956.57;;;8.08;46.35
62055;BME280;48653;51.742;-1.256;2024-03-25T01:18:53;99953.21;;;8.24;46.13
62055;BME280;48653;51.742;-1.256;2024-03-25T01:21:18;99947.65;;;7.78;46.53
62055;BME280;48653;51.742;-1.256;2024-03-25T01:23:43;99940.30;;;7.30;47.03
62055;BME280;48653;51.742;-1.256;2024-03-25T01:26:13;99933.83;;;8.32;45.62
62055;BME280;48653;51.742;-1.256;2024-03-25T01:28:33;99927.53;;;8.70;44.67
62055;BME280;48653;51.742;-1.256;2024-03-25T01:30:59;99918.90;;;8.00;45.61
62055;BME280;48653;51.742;-1.256;2024-03-25T01:33:25;99911.08;;;8.00;45.68
62055;BME280;48653;51.742;-1.256;2024-03-25T01:35:49;99906.00;;;7.31;46.79
62055;BME280;48653;51.742;-1.256;2024-03-25T01:38:14;99901.93;;;8.02;46.51
62055;BME280;48653;51.742;-1.256;2024-03-25T01:40:39;99892.53;;;7.94;46.49
62055;BME280;48653;51.742;-1.256;2024-03-25T01:43:05;99887.01;;;7.64;47.06
62055;BME280;48653;51.742;-1.256;2024-03-25T01:45:31;99884.76;;;7.79;46.75
62055;BME280;48653;51.742;-1.256;2024-03-25T01:47:56;99884.81;;;7.30;47.60
62055;BME280;48653;51.742;-1.256;2024-03-25T01:50:21;99890.07;;;7.77;46.65
62055;BME280;48653;51.742;-1.256;2024-03-25T01:52:45;99890.96;;;7.94;46.48
62055;BME280;48653;51.742;-1.256;2024-03-25T01:55:16;99886.68;;;7.13;47.64
62055;BME280;48653;51.742;-1.256;2024-03-25T01:57:35;99878.29;;;7.87;45.84
62055;BME280;48653;51.742;-1.256;2024-03-25T02:00:01;99872.79;;;7.78;46.06
62055;BME280;48653;51.742;-1.256;2024-03-25T02:02:27;99870.57;;;7.94;46.16
62055;BME280;48653;51.742;-1.256;2024-03-25T02:04:52;99868.68;;;8.27;45.45
62055;BME280;48653;51.742;-1.256;2024-03-25T02:07:17;99863.88;;;7.38;47.08
62055;BME280;48653;51.742;-1.256;2024-03-25T02:09:42;99857.28;;;7.81;46.46
62055;BME280;48653;51.742;-1.256;2024-03-25T02:12:08;99856.34;;;7.65;46.66
62055;BME280;48653;51.742;-1.256;2024-03-25T02:14:33;99853.60;;;7.92;46.11
62055;BME280;48653;51.742;-1.256;2024-03-25T02:16:58;99850.45;;;8.17;45.58
62055;BME280;48653;51.742;-1.256;2024-03-25T02:19:24;99846.82;;;8.34;45.55
62055;BME280;48653;51.742;-1.256;2024-03-25T02:21:48;99842.54;;;7.88;45.92
62055;BME280;48653;51.742;-1.256;2024-03-25T02:24:14;99841.47;;;8.29;45.45
62055;BME280;48653;51.742;-1.256;2024-03-25T02:26:38;99840.05;;;8.49;44.86
62055;BME280;48653;51.742;-1.256;2024-03-25T02:29:03;99840.21;;;8.29;45.07
62055;BME280;48653;51.742;-1.256;2024-03-25T02:31:28;99836.45;;;8.18;45.60
62055;BME280;48653;51.742;-1.256;2024-03-25T02:33:54;99832.07;;;8.13;45.26
62055;BME280;48653;51.742;-1.256;2024-03-25T02:36:20;99822.33;;;7.62;46.55
62055;BME280;48653;51.742;-1.256;2024-03-25T02:38:46;99817.69;;;7.39;46.71
62055;BME280;48653;51.742;-1.256;2024-03-25T02:41:11;99810.74;;;7.47;47.00
62055;BME280;48653;51.742;-1.256;2024-03-25T02:43:37;99805.60;;;7.54;46.68
62055;BME280;48653;51.742;-1.256;2024-03-25T02:46:03;99799.61;;;7.59;46.63
62055;BME280;48653;51.742;-1.256;2024-03-25T02:48:28;99796.75;;;7.65;46.36
62055;BME280;48653;51.742;-1.256;2024-03-25T02:50:53;99796.63;;;7.98;45.68
62055;BME280;48653;51.742;-1.256;2024-03-25T02:53:18;99795.51;;;7.69;46.26
62055;BME280;48653;51.742;-1.256;2024-03-25T02:55:43;99789.56;;;7.97;45.95
62055;BME280;48653;51.742;-1.256;2024-03-25T02:58:09;99782.97;;;7.63;46.53
62055;BME280;48653;51.742;-1.256;2024-03-25T03:00:35;99780.18;;;7.84;46.32
62055;BME280;48653;51.742;-1.256;2024-03-25T03:03:00;99774.21;;;8.14;45.32
62055;BME280;48653;51.742;-1.256;2024-03-25T03:05:26;99771.65;;;7.83;45.47
62055;BME280;48653;51.742;-1.256;2024-03-25T03:07:51;99764.48;;;7.50;46.29
62055;BME280;48653;51.742;-1.256;2024-03-25T03:10:17;99759.20;;;7.63;46.34
62055;BME280;48653;51.742;-1.256;2024-03-25T03:12:42;99754.52;;;7.66;45.89
62055;BME280;48653;51.742;-1.256;2024-03-25T03:15:08;99752.91;;;7.20;46.90
62055;BME280;48653;51.742;-1.256;2024-03-25T03:17:32;99748.96;;;6.78;47.78
62055;BME280;48653;51.742;-1.256;2024-03-25T03:19:58;99740.80;;;6.92;47.46
62055;BME280;48653;51.742;-1.256;2024-03-25T03:22:23;99735.07;;;6.74;48.38
62055;BME280;48653;51.742;-1.256;2024-03-25T03:24:49;99727.68;;;7.15;47.70
62055;BME280;48653;51.742;-1.256;2024-03-25T03:27:14;99724.53;;;6.47;49.00
62055;BME280;48653;51.742;-1.256;2024-03-25T03:29:40;99722.37;;;7.04;48.28
62055;BME280;48653;51.742;-1.256;2024-03-25T03:32:05;99718.86;;;6.88;48.37
62055;BME280;48653;51.742;-1.256;2024-03-25T03:34:30;99716.79;;;6.76;48.08
62055;BME280;48653;51.742;-1.256;2024-03-25T03:36:55;99717.04;;;7.08;47.18
62055;BME280;48653;51.742;-1.256;2024-03-25T03:39:20;99713.06;;;7.34;46.64
62055;BME280;48653;51.742;-1.256;2024-03-25T03:41:46;99713.47;;;6.55;48.23
62055;BME280;48653;51.742;-1.256;2024-03-25T03:44:11;99710.12;;;6.83;48.08
62055;BME280;48653;51.742;-1.256;2024-03-25T03:46:36;99705.97;;;6.92;48.05
62055;BME280;48653;51.742;-1.256;2024-03-25T03:49:01;99702.48;;;6.87;47.37
62055;BME280;48653;51.742;-1.256;2024-03-25T03:51:27;99701.35;;;7.16;47.16
62055;BME280;48653;51.742;-1.256;2024-03-25T03:53:52;99697.14;;;7.82;46.54
62055;BME280;48653;51.742;-1.256;2024-03-25T03:56:18;99695.11;;;7.45;46.40
62055;BME280;48653;51.742;-1.256;2024-03-25T03:58:42;99689.93;;;7.53;46.92
62055;BME280;48653;51.742;-1.256;2024-03-25T04:01:14;99690.00;;;6.44;48.85
62055;BME280;48653;51.742;-1.256;2024-03-25T04:03:33;99688.71;;;6.70;48.56
62055;BME280;48653;51.742;-1.256;2024-03-25T04:05:58;99685.45;;;6.84;48.26
62055;BME280;48653;51.742;-1.256;2024-03-25T04:08:23;99680.95;;;6.84;48.15
62055;BME280;48653;51.742;-1.256;2024-03-25T04:13:13;99679.37;;;6.18;49.57
62055;BME280;48653;51.742;-1.256;2024-03-25T04:15:39;99679.06;;;6.71;48.63
62055;BME280;48653;51.742;-1.256;2024-03-25T04:18:04;99677.59;;;6.32;48.94
62055;BME280;48653;51.742;-1.256;2024-03-25T04:20:29;99673.06;;;6.56;48.96
62055;BME280;48653;51.742;-1.256;2024-03-25T04:22:54;99668.76;;;7.26;47.81
62055;BME280;48653;51.742;-1.256;2024-03-25T04:25:19;99664.49;;;7.20;47.14
62055;BME280;48653;51.742;-1.256;2024-03-25T04:27:44;99659.46;;;7.56;46.25
62055;BME280;48653;51.742;-1.256;2024-03-25T04:30:11;99660.28;;;7.19;47.77
62055;BME280;48653;51.742;-1.256;2024-03-25T04:32:35;99658.15;;;7.08;47.68
62055;BME280;48653;51.742;-1.256;2024-03-25T04:35:00;99653.99;;;6.75;47.96
62055;BME280;48653;51.742;-1.256;2024-03-25T04:37:25;99658.79;;;7.11;47.54
62055;BME280;48653;51.742;-1.256;2024-03-25T04:39:51;99657.75;;;7.29;47.15
62055;BME280;48653;51.742;-1.256;2024-03-25T04:42:15;99655.32;;;7.67;46.63
62055;BME280;48653;51.742;-1.256;2024-03-25T04:44:41;99654.72;;;7.63;46.96
62055;BME280;48653;51.742;-1.256;2024-03-25T04:47:06;99655.79;;;7.42;47.88
62055;BME280;48653;51.742;-1.256;2024-03-25T04:49:31;99655.57;;;7.27;48.20
62055;BME280;48653;51.742;-1.256;2024-03-25T04:51:57;99648.38;;;7.44;47.81
62055;BME280;48653;51.742;-1.256;2024-03-25T04:54:22;99645.62;;;7.56;47.86
62055;BME280;48653;51.742;-1.256;2024-03-25T04:56:47;99645.50;;;6.89;49.65
62055;BME280;48653;51.742;-1.256;2024-03-25T04:59:13;99640.97;;;6.42;51.57
62055;BME280;48653;51.742;-1.256;2024-03-25T05:01:38;99638.23;;;6.03;52.69
62055;BME280;48653;51.742;-1.256;2024-03-25T05:04:04;99632.96;;;6.74;51.41
62055;BME280;48653;51.742;-1.256;2024-03-25T05:06:29;99628.22;;;6.86;50.79
62055;BME280;48653;51.742;-1.256;2024-03-25T05:08:55;99628.44;;;6.40;52.72
62055;BME280;48653;51.742;-1.256;2024-03-25T05:11:20;99626.28;;;7.28;51.41
62055;BME280;48653;51.742;-1.256;2024-03-25T05:13:45;99625.20;;;7.47;50.89
62055;BME280;48653;51.742;-1.256;2024-03-25T05:16:11;99620.97;;;6.97;52.26
62055;BME280;48653;51.742;-1.256;2024-03-25T05:18:36;99617.57;;;6.98;52.19
62055;BME280;48653;51.742;-1.256;2024-03-25T05:21:02;99616.57;;;7.02;52.75
62055;BME280;48653;51.742;-1.256;2024-03-25T05:23:26;99612.31;;;6.68;53.22
62055;BME280;48653;51.742;-1.256;2024-03-25T05:25:52;99610.48;;;7.54;51.88
62055;BME280;48653;51.742;-1.256;2024-03-25T05:28:17;99612.78;;;7.10;52.41
62055;BME280;48653;51.742;-1.256;2024-03-25T05:30:43;99606.08;;;7.14;51.81
62055;BME280;48653;51.742;-1.256;2024-03-25T05:33:08;99600.34;;;6.85;53.39
62055;BME280;48653;51.742;-1.256;2024-03-25T05:35:33;99599.64;;;7.11;52.06
62055;BME280;48653;51.742;-1.256;2024-03-25T05:37:58;99598.37;;;7.42;52.05
62055;BME280;48653;51.742;-1.256;2024-03-25T05:40:23;99596.15;;;6.26;53.54
62055;BME280;48653;51.742;-1.256;2024-03-25T05:42:49;99597.76;;;6.72;53.31
62055;BME280;48653;51.742;-1.256;2024-03-25T05:45:14;99590.19;;;7.29;53.21
62055;BME280;48653;51.742;-1.256;2024-03-25T05:47:39;99588.39;;;7.15;54.06
62055;BME280;48653;51.742;-1.256;2024-03-25T05:50:06;99583.88;;;7.35;53.61
62055;BME280;48653;51.742;-1.256;2024-03-25T05:52:30;99581.45;;;6.57;55.21
62055;BME280;48653;51.742;-1.256;2024-03-25T05:54:56;99582.17;;;6.90;54.62
62055;BME280;48653;51.742;-1.256;2024-03-25T05:57:20;99577.84;;;7.06;53.99
62055;BME280;48653;51.742;-1.256;2024-03-25T05:59:46;99574.97;;;7.60;53.90
62055;BME280;48653;51.742;-1.256;2024-03-25T06:02:12;99573.85;;;6.76;55.60
62055;BME280;48653;51.742;-1.256;2024-03-25T06:04:38;99568.35;;;6.31;55.80
62055;BME280;48653;51.742;-1.256;2024-03-25T06:07:03;99564.02;;;6.53;55.81
62055;BME280;48653;51.742;-1.256;2024-03-25T06:09:28;99563.72;;;6.56;56.61
62055;BME280;48653;51.742;-1.256;2024-03-25T06:11:53;99559.08;;;6.51;56.45
62055;BME280;48653;51.742;-1.256;2024-03-25T06:14:18;99557.63;;;6.08;57.63
62055;BME280;48653;51.742;-1.256;2024-03-25T06:16:43;99554.21;;;6.12;57.42
62055;BME280;48653;51.742;-1.256;2024-03-25T06:19:08;99550.99;;;6.58;56.29
62055;BME280;48653;51.742;-1.256;2024-03-25T06:21:33;99547.50;;;7.10;54.66
62055;BME280;48653;51.742;-1.256;2024-03-25T06:23:58;99546.98;;;7.19;54.63
62055;BME280;48653;51.742;-1.256;2024-03-25T06:26:24;99543.32;;;6.58;55.76
62055;BME280;48653;51.742;-1.256;2024-03-25T06:28:49;99542.79;;;6.78;56.87
62055;BME280;48653;51.742;-1.256;2024-03-25T06:31:14;99539.82;;;7.27;55.54
62055;BME280;48653;51.742;-1.256;2024-03-25T06:33:39;99536.57;;;6.95;55.31
62055;BME280;48653;51.742;-1.256;2024-03-25T06:36:05;99543.79;;;6.40;56.30
62055;BME280;48653;51.742;-1.256;2024-03-25T06:38:30;99538.03;;;6.52;56.81
62055;BME280;48653;51.742;-1.256;2024-03-25T06:40:56;99537.67;;;6.54;58.00
62055;BME280;48653;51.742;-1.256;2024-03-25T06:43:21;99532.50;;;6.16;59.57
62055;BME280;48653;51.742;-1.256;2024-03-25T06:45:46;99538.78;;;6.83;56.93
62055;BME280;48653;51.742;-1.256;2024-03-25T06:48:11;99537.38;;;7.10;57.15
62055;BME280;48653;51.742;-1.256;2024-03-25T06:50:37;99535.60;;;6.38;58.70
62055;BME280;48653;51.742;-1.256;2024-03-25T06:53:03;99532.01;;;5.84;60.78
62055;BME280;48653;51.742;-1.256;2024-03-25T06:55:28;99527.00;;;6.28;59.98
62055;BME280;48653;51.742;-1.256;2024-03-25T06:57:54;99527.89;;;6.13;60.21
62055;BME280;48653;51.742;-1.256;2024-03-25T07:00:19;99526.02;;;5.75;60.56
62055;BME280;48653;51.742;-1.256;2024-03-25T07:02:44;99531.18;;;5.70;60.78
62055;BME280;48653;51.742;-1.256;2024-03-25T07:05:09;99530.61;;;6.38;59.38
62055;BME280;48653;51.742;-1.256;2024-03-25T07:07:35;99526.62;;;5.93;60.41
62055;BME280;48653;51.742;-1.256;2024-03-25T07:10:00;99530.10;;;6.22;58.90
62055;BME280;48653;51.742;-1.256;2024-03-25T07:12:26;99525.00;;;6.46;58.64
62055;BME280;48653;51.742;-1.256;2024-03-25T07:14:50;99525.12;;;6.37;60.01
62055;BME280;48653;51.742;-1.256;2024-03-25T07:17:16;99524.38;;;6.57;58.69
62055;BME280;48653;51.742;-1.256;2024-03-25T07:19:41;99525.58;;;6.40;60.09
62055;BME280;48653;51.742;-1.256;2024-03-25T07:22:07;99522.56;;;6.89;57.73
62055;BME280;48653;51.742;-1.256;2024-03-25T07:24:32;99519.15;;;7.30;57.28
62055;BME280;48653;51.742;-1.256;2024-03-25T07:26:58;99516.48;;;6.95;57.54
62055;BME280;48653;51.742;-1.256;2024-03-25T07:29:23;99513.07;;;7.22;57.31
62055;BME280;48653;51.742;-1.256;2024-03-25T07:31:53;99517.19;;;6.59;59.61
62055;BME280;48653;51.742;-1.256;2024-03-25T07:34:14;99511.00;;;6.63;58.66
62055;BME280;48653;51.742;-1.256;2024-03-25T07:36:39;99507.08;;;6.20;60.94
62055;BME280;48653;51.742;-1.256;2024-03-25T07:39:04;99502.06;;;6.64;59.11
62055;BME280;48653;51.742;-1.256;2024-03-25T07:41:29;99500.93;;;6.65;58.95
62055;BME280;48653;51.742;-1.256;2024-03-25T07:43:54;99495.34;;;7.52;57.29
62055;BME280;48653;51.742;-1.256;2024-03-25T07:46:20;99498.44;;;7.23;58.52
62055;BME280;48653;51.742;-1.256;2024-03-25T07:48:46;99492.68;;;6.86;59.09
62055;BME280;48653;51.742;-1.256;2024-03-25T07:51:11;99489.31;;;6.84;59.08
62055;BME280;48653;51.742;-1.256;2024-03-25T07:53:36;99489.90;;;7.25;57.22
62055;BME280;48653;51.742;-1.256;2024-03-25T07:56:02;99499.23;;;6.37;60.26
62055;BME280;48653;51.742;-1.256;2024-03-25T07:58:27;99491.26;;;5.94;61.44
62055;BME280;48653;51.742;-1.256;2024-03-25T08:00:52;99493.34;;;6.68;59.95
62055;BME280;48653;51.742;-1.256;2024-03-25T08:03:17;99486.79;;;7.05;58.55
62055;BME280;48653;51.742;-1.256;2024-03-25T08:05:42;99483.30;;;6.70;59.07
62055;BME280;48653;51.742;-1.256;2024-03-25T08:08:08;99476.75;;;7.60;57.63
62055;BME280;48653;51.742;-1.256;2024-03-25T08:10:33;99473.32;;;7.21;57.81
62055;BME280;48653;51.742;-1.256;2024-03-25T08:12:58;99471.08;;;6.74;59.60
62055;BME280;48653;51.742;-1.256;2024-03-25T08:15:23;99471.98;;;7.00;58.84
62055;BME280;48653;51.742;-1.256;2024-03-25T08:17:48;99461.88;;;6.22;59.95
62055;BME280;48653;51.742;-1.256;2024-03-25T08:20:14;99460.83;;;6.65;60.85
62055;BME280;48653;51.742;-1.256;2024-03-25T08:22:39;99461.96;;;5.94;61.59
62055;BME280;48653;51.742;-1.256;2024-03-25T08:25:05;99460.78;;;6.37;61.32
62055;BME280;48653;51.742;-1.256;2024-03-25T08:27:29;99462.34;;;6.42;61.22
62055;BME280;48653;51.742;-1.256;2024-03-25T08:29:54;99463.69;;;5.89;62.99
62055;BME280;48653;51.742;-1.256;2024-03-25T08:32:20;99463.90;;;6.29;61.85
62055;BME280;48653;51.742;-1.256;2024-03-25T08:34:45;99455.50;;;6.44;60.19
62055;BME280;48653;51.742;-1.256;2024-03-25T08:37:10;99459.07;;;6.47;60.71
62055;BME280;48653;51.742;-1.256;2024-03-25T08:39:35;99461.52;;;5.95;61.53
62055;BME280;48653;51.742;-1.256;2024-03-25T08:42:00;99461.46;;;5.84;62.01
62055;BME280;48653;51.742;-1.256;2024-03-25T08:44:26;99457.02;;;6.86;60.30
62055;BME280;48653;51.742;-1.256;2024-03-25T08:46:51;99454.81;;;6.97;60.12
62055;BME280;48653;51.742;-1.256;2024-03-25T08:49:17;99459.13;;;6.91;59.88
62055;BME280;48653;51.742;-1.256;2024-03-25T08:51:43;99455.20;;;7.10;59.01
62055;BME280;48653;51.742;-1.256;2024-03-25T08:54:07;99452.19;;;7.57;58.70
62055;BME280;48653;51.742;-1.256;2024-03-25T08:56:33;99457.18;;;7.33;58.54
62055;BME280;48653;51.742;-1.256;2024-03-25T08:58:58;99450.86;;;7.95;57.53
62055;BME280;48653;51.742;-1.256;2024-03-25T09:01:24;99460.45;;;7.29;58.48
62055;BME280;48653;51.742;-1.256;2024-03-25T09:03:49;99454.38;;;7.29;58.21
62055;BME280;48653;51.742;-1.256;2024-03-25T09:06:14;99459.72;;;7.33;58.11
62055;BME280;48653;51.742;-1.256;2024-03-25T09:08:40;99451.35;;;6.55;60.52
62055;BME280;48653;51.742;-1.256;2024-03-25T09:11:05;99447.22;;;6.76;60.80
62055;BME280;48653;51.742;-1.256;2024-03-25T09:13:30;99447.23;;;6.32;61.50
62055;BME280;48653;51.742;-1.256;2024-03-25T09:15:55;99442.56;;;7.17;59.46
62055;BME280;48653;51.742;-1.256;2024-03-25T09:18:21;99439.95;;;7.14;59.08
62055;BME280;48653;51.742;-1.256;2024-03-25T09:20:46;99438.88;;;6.50;60.46
62055;BME280;48653;51.742;-1.256;2024-03-25T09:23:11;99440.82;;;6.78;60.34
62055;BME280;48653;51.742;-1.256;2024-03-25T09:25:36;99440.24;;;7.75;56.71
62055;BME280;48653;51.742;-1.256;2024-03-25T09:28:02;99437.90;;;7.76;57.02
62055;BME280;48653;51.742;-1.256;2024-03-25T09:30:27;99435.18;;;7.44;55.84
62055;BME280;48653;51.742;-1.256;2024-03-25T09:32:52;99434.84;;;7.92;55.36
62055;BME280;48653;51.742;-1.256;2024-03-25T09:35:18;99430.36;;;8.35;54.77
62055;BME280;48653;51.742;-1.256;2024-03-25T09:37:43;99428.95;;;7.69;54.66
62055;BME280;48653;51.742;-1.256;2024-03-25T09:40:08;99431.50;;;7.21;56.94
62055;BME280;48653;51.742;-1.256;2024-03-25T09:42:34;99423.71;;;7.17;57.44
62055;BME280;48653;51.742;-1.256;2024-03-25T09:44:58;99416.97;;;7.88;55.97
62055;BME280;48653;51.742;-1.256;2024-03-25T09:47:23;99415.82;;;7.58;54.27
62055;BME280;48653;51.742;-1.256;2024-03-25T09:49:49;99414.13;;;7.63;54.52
62055;BME280;48653;51.742;-1.256;2024-03-25T09:52:14;99412.31;;;7.82;54.96
62055;BME280;48653;51.742;-1.256;2024-03-25T09:54:39;99414.35;;;7.16;56.62
62055;BME280;48653;51.742;-1.256;2024-03-25T09:57:05;99407.44;;;7.31;56.07
62055;BME280;48653;51.742;-1.256;2024-03-25T09:59:29;99402.80;;;7.65;54.80
62055;BME280;48653;51.742;-1.256;2024-03-25T10:01:54;99403.79;;;7.97;54.70
62055;BME280;48653;51.742;-1.256;2024-03-25T10:04:19;99403.83;;;8.16;54.88
62055;BME280;48653;51.742;-1.256;2024-03-25T10:06:44;99402.58;;;7.92;54.92
62055;BME280;48653;51.742;-1.256;2024-03-25T10:09:09;99409.42;;;6.64;58.35
62055;BME280;48653;51.742;-1.256;2024-03-25T10:11:35;99404.81;;;7.07;57.10
62055;BME280;48653;51.742;-1.256;2024-03-25T10:14:00;99405.68;;;6.90;57.15
62055;BME280;48653;51.742;-1.256;2024-03-25T10:16:25;99397.11;;;7.26;55.44
62055;BME280;48653;51.742;-1.256;2024-03-25T10:18:52;99403.01;;;7.04;57.20
62055;BME280;48653;51.742;-1.256;2024-03-25T10:21:19;99394.58;;;6.67;56.97
62055;BME280;48653;51.742;-1.256;2024-03-25T10:23:41;99385.64;;;7.74;54.80
62055;BME280;48653;51.742;-1.256;2024-03-25T10:26:07;99381.29;;;7.53;54.51
62055;BME280;48653;51.742;-1.256;2024-03-25T10:28:31;99373.77;;;8.12;52.95
62055;BME280;48653;51.742;-1.256;2024-03-25T10:31:03;99374.57;;;7.10;55.01
62055;BME280;48653;51.742;-1.256;2024-03-25T10:33:21;99369.50;;;6.85;54.96
62055;BME280;48653;51.742;-1.256;2024-03-25T10:35:48;99359.83;;;7.73;53.84
62055;BME280;48653;51.742;-1.256;2024-03-25T10:38:14;99357.56;;;7.36;54.30
62055;BME280;48653;51.742;-1.256;2024-03-25T10:40:37;99355.88;;;7.66;52.75
62055;BME280;48653;51.742;-1.256;2024-03-25T10:43:03;99357.00;;;8.33;51.67
62055;BME280;48653;51.742;-1.256;2024-03-25T10:45:28;99350.20;;;8.58;50.57
62055;BME280;48653;51.742;-1.256;2024-03-25T10:47:52;99345.15;;;7.25;53.50
62055;BME280;48653;51.742;-1.256;2024-03-25T10:50:21;99339.56;;;8.72;52.32
62055;BME280;48653;51.742;-1.256;2024-03-25T10:52:42;99342.22;;;7.96;52.94
62055;BME280;48653;51.742;-1.256;2024-03-25T10:55:08;99335.37;;;8.30;51.73
62055;BME280;48653;51.742;-1.256;2024-03-25T10:57:32;99336.50;;;7.91;50.45
62055;BME280;48653;51.742;-1.256;2024-03-25T10:59:58;99329.59;;;7.92;51.47
62055;BME280;48653;51.742;-1.256;2024-03-25T11:02:22;99326.17;;;8.80;50.10
62055;BME280;48653;51.742;-1.256;2024-03-25T11:04:47;99320.19;;;8.91;48.26
62055;BME280;48653;51.742;-1.256;2024-03-25T11:07:14;99318.86;;;9.41;48.14
62055;BME280;48653;51.742;-1.256;2024-03-25T11:09:38;99316.62;;;8.51;49.72
62055;BME280;48653;51.742;-1.256;2024-03-25T11:12:04;99311.28;;;7.81;50.56
62055;BME280;48653;51.742;-1.256;2024-03-25T11:14:28;99306.46;;;7.63;51.16
62055;BME280;48653;51.742;-1.256;2024-03-25T11:16:54;99298.79;;;7.97;50.99
62055;BME280;48653;51.742;-1.256;2024-03-25T11:19:20;99285.81;;;8.29;51.36
62055;BME280;48653;51.742;-1.256;2024-03-25T11:21:43;99279.73;;;8.49;50.50
62055;BME280;48653;51.742;-1.256;2024-03-25T11:24:08;99276.04;;;8.99;48.01
62055;BME280;48653;51.742;-1.256;2024-03-25T11:26:33;99272.20;;;8.43;49.81
62055;BME280;48653;51.742;-1.256;2024-03-25T11:28:58;99266.74;;;9.06;48.31
62055;BME280;48653;51.742;-1.256;2024-03-25T11:31:25;99269.00;;;9.36;46.99
62055;BME280;48653;51.742;-1.256;2024-03-25T11:33:48;99255.88;;;9.26;48.54
62055;BME280;48653;51.742;-1.256;2024-03-25T11:36:14;99255.50;;;8.77;48.68
62055;BME280;48653;51.742;-1.256;2024-03-25T11:38:39;99247.04;;;8.52;48.35
62055;BME280;48653;51.742;-1.256;2024-03-25T11:41:04;99247.49;;;9.11;48.71
62055;BME280;48653;51.742;-1.256;2024-03-25T11:43:29;99241.45;;;9.04;47.58
62055;BME280;48653;51.742;-1.256;2024-03-25T11:45:54;99246.12;;;9.70;49.22
62055;BME280;48653;51.742;-1.256;2024-03-25T11:48:19;99243.04;;;9.89;47.11
62055;BME280;48653;51.742;-1.256;2024-03-25T11:50:45;99239.05;;;10.27;47.35
62055;BME280;48653;51.742;-1.256;2024-03-25T11:53:09;99236.57;;;8.93;47.19
62055;BME280;48653;51.742;-1.256;2024-03-25T11:55:34;99236.35;;;9.33;48.45
62055;BME280;48653;51.742;-1.256;2024-03-25T11:57:59;99224.68;;;10.00;46.50
62055;BME280;48653;51.742;-1.256;2024-03-25T12:00:24;99222.30;;;9.19;48.26
62055;BME280;48653;51.742;-1.256;2024-03-25T12:02:49;99217.15;;;9.36;47.28
62055;BME280;48653;51.742;-1.256;2024-03-25T12:05:14;99209.33;;;9.35;48.42
62055;BME280;48653;51.742;-1.256;2024-03-25T12:07:39;99201.39;;;10.43;47.42
62055;BME280;48653;51.742;-1.256;2024-03-25T12:10:06;99194.87;;;11.27;45.89
62055;BME280;48653;51.742;-1.256;2024-03-25T12:12:30;99191.40;;;10.46;44.90
62055;BME280;48653;51.742;-1.256;2024-03-25T12:14:56;99189.11;;;11.56;44.66
62055;BME280;48653;51.742;-1.256;2024-03-25T12:17:21;99183.49;;;11.56;42.68
62055;BME280;48653;51.742;-1.256;2024-03-25T12:19:45;99181.75;;;12.53;41.76
62055;BME280;48653;51.742;-1.256;2024-03-25T12:22:10;99171.20;;;11.88;42.09
62055;BME280;48653;51.742;-1.256;2024-03-25T12:24:35;99177.60;;;12.24;40.89
62055;BME280;48653;51.742;-1.256;2024-03-25T12:27:00;99174.54;;;12.36;40.89
62055;BME280;48653;51.742;-1.256;2024-03-25T12:29:25;99169.03;;;11.10;43.08
62055;BME280;48653;51.742;-1.256;2024-03-25T12:31:54;99163.87;;;10.84;43.23
62055;BME280;48653;51.742;-1.256;2024-03-25T12:34:16;99156.36;;;11.57;42.50
62055;BME280;48653;51.742;-1.256;2024-03-25T12:36:40;99156.62;;;11.14;40.48
62055;BME280;48653;51.742;-1.256;2024-03-25T12:39:05;99147.27;;;12.24;40.52
62055;BME280;48653;51.742;-1.256;2024-03-25T12:41:30;99140.26;;;11.57;41.00
62055;BME280;48653;51.742;-1.256;2024-03-25T12:43:55;99140.13;;;11.60;41.49
62055;BME280;48653;51.742;-1.256;2024-03-25T12:46:20;99140.96;;;11.54;40.86
62055;BME280;48653;51.742;-1.256;2024-03-25T12:48:45;99137.91;;;11.49;41.26
62055;BME280;48653;51.742;-1.256;2024-03-25T12:51:13;99141.18;;;11.31;42.58
62055;BME280;48653;51.742;-1.256;2024-03-25T12:53:36;99138.83;;;11.16;42.58